createdAt,value
2023-02-09T00:03:41.423Z,60.16
2023-02-09T00:08:43.089Z,59.80
2023-02-09T00:13:44.519Z,60.64
2023-02-09T00:18:45.858Z,60.20
2023-02-09T00:23:47.182Z,60.40
2023-02-09T00:28:48.552Z,60.23
2023-02-09T00:33:49.906Z,60.51
2023-02-09T00:38:51.248Z,60.44
2023-02-09T00:43:52.572Z,61.20
2023-02-09T00:48:53.968Z,60.83
2023-02-09T00:53:55.507Z,61.24
2023-02-09T00:58:57.107Z,61.80
2023-02-09T01:03:58.549Z,61.13
2023-02-09T01:09:00.539Z,61.18
2023-02-09T01:14:04.229Z,60.86
2023-02-09T01:19:05.628Z,61.67
2023-02-09T01:24:07.814Z,61.76
2023-02-09T01:29:12.902Z,61.22
2023-02-09T01:34:17.451Z,61.47
2023-02-09T01:39:18.812Z,61.26
2023-02-09T01:44:20.080Z,61.59
2023-02-09T01:49:27.665Z,61.46
2023-02-09T01:54:34.514Z,61.96
2023-02-09T01:59:40.018Z,61.69
2023-02-09T02:04:44.333Z,61.85
2023-02-09T02:09:46.216Z,61.50
2023-02-09T02:14:47.644Z,61.59
2023-02-09T02:20:05.530Z,61.63
2023-02-09T02:25:32.896Z,61.69
2023-02-09T02:30:38.742Z,61.47
2023-02-09T02:35:58.623Z,61.96
2023-02-09T02:41:18.803Z,61.90
2023-02-09T02:46:30.711Z,61.58
2023-02-09T02:51:37.910Z,61.88
2023-02-09T02:56:43.059Z,61.95
2023-02-09T03:01:55.226Z,61.93
2023-02-09T03:06:56.586Z,61.64
2023-02-09T03:12:20.544Z,61.94
2023-02-09T03:17:43.391Z,62.07
2023-02-09T03:22:56.274Z,62.32
2023-02-09T03:28:12.181Z,62.47
2023-02-09T03:33:22.278Z,62.44
2023-02-09T03:38:24.842Z,62.44
2023-02-09T03:43:46.333Z,62.80
2023-02-09T03:48:47.876Z,63.04
2023-02-09T03:53:49.308Z,62.99
2023-02-09T03:58:51.191Z,62.92
2023-02-09T04:03:52.551Z,62.82
2023-02-09T04:08:53.937Z,62.70
2023-02-09T04:13:55.391Z,62.94
2023-02-09T04:18:57.141Z,62.98
2023-02-09T04:23:58.623Z,62.90
2023-02-09T04:29:00.048Z,62.69
2023-02-09T04:34:01.451Z,62.53
2023-02-09T04:39:03.300Z,62.92
2023-02-09T04:44:04.670Z,62.86
2023-02-09T04:49:06.005Z,62.97
2023-02-09T04:54:07.532Z,63.11
2023-02-09T04:59:28.320Z,63.07
2023-02-09T05:04:30.590Z,62.87
2023-02-09T05:09:32.051Z,63.39
2023-02-09T05:14:33.476Z,63.76
2023-02-09T05:19:34.818Z,63.40
2023-02-09T05:24:36.150Z,63.08
2023-02-09T05:29:37.485Z,63.32
2023-02-09T05:34:38.888Z,63.39
2023-02-09T05:39:40.333Z,63.98
2023-02-09T05:44:50.122Z,63.61
2023-02-09T05:49:52.478Z,63.53
2023-02-09T05:54:53.824Z,63.53
2023-02-09T05:59:55.258Z,63.17
2023-02-09T06:04:56.812Z,63.46
2023-02-09T06:09:58.438Z,63.80
2023-02-09T06:14:59.865Z,63.42
2023-02-09T06:20:01.375Z,63.92
2023-02-09T06:25:03.480Z,63.88
2023-02-09T06:30:05.613Z,63.63
2023-02-09T06:35:07.069Z,64.09
2023-02-09T06:40:08.659Z,63.91
2023-02-09T06:45:14.923Z,64.02
2023-02-09T06:50:17.854Z,63.86
2023-02-09T06:55:19.320Z,63.58
2023-02-09T07:00:21.791Z,63.94
2023-02-09T07:05:23.180Z,63.88
2023-02-09T07:10:24.631Z,63.52
2023-02-09T07:15:26.087Z,64.12
2023-02-09T07:20:27.567Z,63.34
2023-02-09T07:25:28.948Z,63.79
2023-02-09T07:30:30.379Z,64.25
2023-02-09T07:35:31.877Z,63.75
2023-02-09T07:40:33.218Z,63.79
2023-02-09T07:45:34.550Z,64.24
2023-02-09T07:50:35.922Z,63.99
2023-02-09T07:55:39.768Z,63.91
2023-02-09T08:00:41.081Z,64.08
2023-02-09T08:05:56.867Z,64.00
2023-02-09T08:11:00.923Z,64.07
2023-02-09T08:16:05.502Z,63.85
2023-02-09T08:21:09.693Z,63.65
2023-02-09T08:26:13.198Z,63.63
2023-02-09T08:31:17.409Z,63.24
2023-02-09T08:36:20.355Z,63.89
2023-02-09T08:41:21.959Z,63.52
2023-02-09T08:46:23.451Z,63.86
2023-02-09T08:51:24.959Z,63.46
2023-02-09T08:56:26.327Z,62.95
2023-02-09T09:01:27.718Z,63.30
2023-02-09T09:06:29.244Z,63.52
2023-02-09T09:11:30.754Z,62.86
2023-02-09T09:16:32.191Z,63.20
2023-02-09T09:21:33.926Z,63.19
2023-02-09T09:26:35.671Z,62.18
2023-02-09T09:31:37.974Z,62.75
2023-02-09T09:36:39.633Z,62.72
2023-02-09T09:41:41.095Z,61.95
2023-02-09T09:46:47.494Z,61.31
2023-02-09T09:51:55.680Z,62.02
2023-02-09T09:56:57.391Z,61.41
2023-02-09T10:02:03.497Z,60.79
2023-02-09T10:07:16.398Z,60.45
2023-02-09T10:12:30.033Z,60.62
2023-02-09T10:17:31.398Z,59.94
2023-02-09T10:22:32.753Z,59.87
2023-02-09T10:27:34.066Z,59.88
2023-02-09T10:32:43.295Z,59.56
2023-02-09T10:37:44.669Z,59.45
2023-02-09T10:43:00.799Z,58.65
2023-02-09T10:48:18.876Z,58.51
2023-02-09T10:53:25.020Z,59.12
2023-02-09T10:58:33.468Z,58.58
2023-02-09T11:03:36.257Z,58.24
2023-02-09T11:08:43.323Z,57.63
2023-02-09T11:13:44.708Z,57.36
2023-02-09T11:18:57.060Z,57.54
2023-02-09T11:24:07.150Z,57.33
2023-02-09T11:29:35.025Z,55.95
2023-02-09T11:35:10.556Z,56.07
2023-02-09T11:40:33.236Z,55.30
2023-02-09T11:45:52.168Z,55.15
2023-02-09T11:51:07.939Z,54.67
2023-02-09T11:56:13.418Z,54.55
2023-02-09T12:01:39.774Z,53.96
2023-02-09T12:06:54.519Z,53.73
2023-02-09T12:12:10.288Z,53.32
2023-02-09T12:17:18.823Z,53.41
2023-02-09T12:22:35.479Z,53.16
2023-02-09T12:27:38.919Z,52.79
2023-02-09T12:32:43.892Z,52.12
2023-02-09T12:38:13.299Z,52.05
2023-02-09T12:43:27.004Z,51.87
2023-02-09T12:48:28.471Z,51.54
2023-02-09T12:53:40.675Z,51.24
2023-02-09T12:58:45.307Z,51.46
2023-02-09T13:04:05.669Z,50.81
2023-02-09T13:09:15.219Z,50.85
2023-02-09T13:14:18.626Z,50.59
2023-02-09T13:19:50.697Z,49.95
2023-02-09T13:25:00.394Z,49.87
2023-02-09T13:30:01.971Z,49.78
2023-02-09T13:35:24.283Z,49.51
2023-02-09T13:40:29.610Z,49.04
2023-02-09T13:45:31.822Z,48.60
2023-02-09T13:50:33.400Z,48.38
2023-02-09T13:55:37.740Z,48.65
2023-02-09T14:00:48.118Z,47.91
2023-02-09T14:05:59.634Z,47.81
2023-02-09T14:11:41.063Z,47.45
2023-02-09T14:16:53.160Z,47.58
2023-02-09T14:21:55.372Z,47.91
2023-02-09T14:27:04.889Z,46.95
2023-02-09T14:32:35.724Z,47.17
2023-02-09T14:37:37.156Z,47.26
2023-02-09T14:42:56.919Z,46.60
2023-02-09T14:47:58.448Z,46.65
2023-02-09T14:53:06.758Z,46.32
2023-02-09T14:58:23.269Z,46.27
2023-02-09T15:03:25.017Z,46.10
2023-02-09T15:08:30.270Z,46.18
2023-02-09T15:13:32.949Z,46.50
2023-02-09T15:18:36.081Z,46.04
2023-02-09T15:23:37.450Z,46.35
2023-02-09T15:28:39.355Z,46.11
2023-02-09T15:33:40.886Z,46.64
2023-02-09T15:38:42.336Z,47.14
2023-02-09T15:44:02.407Z,46.84
2023-02-09T15:49:05.402Z,47.06
2023-02-09T15:54:17.900Z,47.33
2023-02-09T15:59:22.028Z,47.62
2023-02-09T16:04:23.445Z,47.90
2023-02-09T16:09:27.680Z,48.12
2023-02-09T16:14:29.104Z,48.65
2023-02-09T16:19:30.719Z,48.57
2023-02-09T16:24:45.016Z,48.90
2023-02-09T16:29:46.360Z,49.22
2023-02-09T16:34:48.369Z,49.53
2023-02-09T16:39:49.796Z,49.75
2023-02-09T16:44:51.754Z,49.93
2023-02-09T16:50:02.785Z,49.97
2023-02-09T16:55:06.201Z,50.22
2023-02-09T17:00:08.271Z,50.10
2023-02-09T17:05:37.023Z,50.33
2023-02-09T17:10:38.377Z,50.99
2023-02-09T17:15:44.150Z,50.88
2023-02-09T17:20:50.644Z,51.24
2023-02-09T17:25:55.052Z,51.30
2023-02-09T17:31:00.145Z,51.23
2023-02-09T17:41:31.268Z,51.42
2023-02-09T17:46:32.633Z,51.92
2023-02-09T17:51:40.290Z,52.12
2023-02-09T17:56:42.453Z,52.32
2023-02-09T18:01:46.456Z,52.12
2023-02-09T18:06:47.828Z,52.92
2023-02-09T18:11:55.432Z,53.30
2023-02-09T18:16:56.998Z,53.70
2023-02-09T18:22:01.200Z,53.74
2023-02-09T18:27:02.791Z,53.79
2023-02-09T18:32:04.509Z,53.86
2023-02-09T18:37:06.752Z,54.32
2023-02-09T18:42:12.724Z,54.15
2023-02-09T18:47:14.214Z,54.78
2023-02-09T18:52:20.789Z,54.82
2023-02-09T18:57:22.138Z,54.48
2023-02-09T19:02:24.203Z,54.71
2023-02-09T19:07:25.847Z,55.67
2023-02-09T19:12:28.357Z,55.56
2023-02-09T19:17:29.909Z,55.64
2023-02-09T19:22:32.143Z,56.08
2023-02-09T19:27:33.615Z,55.96
2023-02-09T19:32:35.027Z,56.23
2023-02-09T19:37:37.340Z,56.22
2023-02-09T19:42:38.721Z,56.58
2023-02-09T19:47:40.131Z,56.96
2023-02-09T19:52:44.030Z,57.08
2023-02-09T19:57:45.444Z,57.19
2023-02-09T20:02:48.088Z,56.45
2023-02-09T20:07:49.775Z,57.05
2023-02-09T20:12:51.294Z,57.21
2023-02-09T20:17:52.616Z,57.84
2023-02-09T20:22:54.850Z,57.35
2023-02-09T20:27:56.229Z,57.82
2023-02-09T20:32:57.576Z,58.36
2023-02-09T20:37:58.912Z,57.92
2023-02-09T20:43:18.944Z,58.53
2023-02-09T20:48:20.288Z,57.92
2023-02-09T20:53:22.486Z,59.06
2023-02-09T20:58:24.856Z,58.64
2023-02-09T21:03:26.200Z,59.27
2023-02-09T21:08:27.570Z,58.32
2023-02-09T21:13:28.987Z,59.40
2023-02-09T21:18:30.328Z,59.22
2023-02-09T21:23:31.842Z,59.69
2023-02-09T21:28:33.266Z,59.45
2023-02-09T21:33:35.485Z,60.35
2023-02-09T21:38:41.401Z,60.49
2023-02-09T21:43:43.238Z,59.69
2023-02-09T21:48:44.804Z,60.41
2023-02-09T21:53:48.360Z,60.20
2023-02-09T21:58:49.723Z,60.07
2023-02-09T22:03:57.119Z,60.68
2023-02-09T22:09:02.397Z,60.73
2023-02-09T22:14:04.352Z,60.93
2023-02-09T22:19:05.751Z,61.15
2023-02-09T22:24:07.354Z,61.14
2023-02-09T22:29:10.188Z,60.44
2023-02-09T22:34:11.625Z,60.90
2023-02-09T22:39:13.054Z,61.35
2023-02-09T22:44:16.010Z,61.07
2023-02-09T22:49:19.682Z,61.70
2023-02-09T22:54:21.365Z,61.76
2023-02-09T22:59:22.737Z,62.10
2023-02-09T23:04:24.168Z,61.37
2023-02-09T23:09:25.628Z,61.84
2023-02-09T23:14:27.244Z,61.69
2023-02-09T23:19:28.636Z,61.63
2023-02-09T23:24:29.996Z,61.82
2023-02-09T23:29:31.386Z,61.67
2023-02-09T23:34:33.488Z,61.70
2023-02-09T23:39:35.961Z,62.18
2023-02-09T23:44:37.337Z,61.93
2023-02-09T23:49:38.719Z,62.20
2023-02-09T23:54:40.070Z,62.20
2023-02-09T23:59:42.532Z,62.85
